createdAt,value
2018-10-06T00:00:26.265Z,0
2018-10-06T00:01:26.781Z,0
2018-10-06T00:02:26.541Z,0
2018-10-06T00:03:26.744Z,0
2018-10-06T00:04:26.737Z,0
2018-10-06T00:05:26.722Z,0
2018-10-06T00:06:26.439Z,0
2018-10-06T00:07:26.429Z,0
2018-10-06T00:08:26.422Z,0
2018-10-06T00:09:26.135Z,0
2018-10-06T00:10:26.384Z,0
2018-10-06T00:11:26.635Z,0
2018-10-06T00:12:26.629Z,0
2018-10-06T00:13:26.341Z,0
2018-10-06T00:14:26.066Z,0
2018-10-06T00:15:26.061Z,0
2018-10-06T00:16:26.034Z,0
2018-10-06T00:17:25.756Z,0
2018-10-06T00:18:26.274Z,0
2018-10-06T00:19:26.256Z,0
2018-10-06T00:20:26.248Z,0
2018-10-06T00:21:26.228Z,0
2018-10-06T00:22:26.221Z,0
2018-10-06T00:23:26.195Z,0
2018-10-06T00:24:25.926Z,0
2018-10-06T00:25:26.450Z,0
2018-10-06T00:26:26.155Z,0
2018-10-06T00:27:25.893Z,0
2018-10-06T00:28:26.132Z,0
2018-10-06T00:29:26.114Z,0
2018-10-06T00:30:25.563Z,0
2018-10-06T00:31:25.820Z,0
2018-10-06T00:32:25.817Z,0
2018-10-06T00:33:25.793Z,0
2018-10-06T00:34:25.781Z,0
2018-10-06T00:35:26.024Z,0
2018-10-06T00:36:26.019Z,0
2018-10-06T00:37:26.005Z,0
2018-10-06T00:38:25.720Z,0
2018-10-06T00:39:25.977Z,0
2018-10-06T00:40:25.423Z,0
2018-10-06T00:41:25.935Z,0
2018-10-06T00:42:26.189Z,0
2018-10-06T00:43:25.643Z,0
2018-10-06T00:44:26.161Z,0
2018-10-06T00:45:25.350Z,0
2018-10-06T00:46:26.129Z,0
2018-10-06T00:47:25.788Z,0
2018-10-06T00:48:26.103Z,0
2018-10-06T00:49:25.547Z,0
2018-10-06T00:50:25.543Z,0
2018-10-06T00:51:25.794Z,0
2018-10-06T00:52:25.777Z,0
2018-10-06T00:53:25.765Z,0
2018-10-06T00:54:25.752Z,0
2018-10-06T00:55:25.473Z,0
2018-10-06T00:56:25.723Z,0
2018-10-06T00:57:25.704Z,0
2018-10-06T00:58:25.952Z,0
2018-10-06T00:59:25.934Z,0
2018-10-06T01:00:25.658Z,0
2018-10-06T01:01:25.382Z,0
2018-10-06T01:02:25.630Z,0
2018-10-06T01:03:25.612Z,0
2018-10-06T01:04:25.609Z,0
2018-10-06T01:05:25.587Z,0
2018-10-06T01:06:25.861Z,0
2018-10-06T01:07:25.298Z,0
2018-10-06T01:08:25.816Z,0
2018-10-06T01:09:25.797Z,0
2018-10-06T01:10:25.987Z,0
2018-10-06T01:11:25.239Z,0
2018-10-06T01:12:25.904Z,0
2018-10-06T01:13:25.736Z,0
2018-10-06T01:14:25.492Z,0
2018-10-06T01:15:25.467Z,0
2018-10-06T01:16:25.425Z,0
2018-10-06T01:17:25.415Z,0
2018-10-06T01:18:25.133Z,0
2018-10-06T01:19:24.855Z,0
2018-10-06T01:20:25.635Z,0
2018-10-06T01:21:25.092Z,0
2018-10-06T01:22:25.338Z,0
2018-10-06T01:23:25.583Z,0
2018-10-06T01:24:25.573Z,0
2018-10-06T01:25:25.031Z,0
2018-10-06T01:26:25.271Z,0
2018-10-06T01:27:25.277Z,0
2018-10-06T01:28:24.986Z,0
2018-10-06T01:29:25.237Z,0
2018-10-06T01:30:24.953Z,0
2018-10-06T01:31:25.208Z,0
2018-10-06T01:32:24.658Z,0
2018-10-06T01:33:24.911Z,0
2018-10-06T01:34:25.469Z,0
2018-10-06T01:35:24.615Z,0
2018-10-06T01:36:25.134Z,0
2018-10-06T01:37:24.854Z,0
2018-10-06T01:38:25.105Z,0
2018-10-06T01:39:25.088Z,0
2018-10-06T01:40:25.071Z,0
2018-10-06T01:41:25.320Z,0
2018-10-06T01:42:24.778Z,0
2018-10-06T01:43:24.773Z,0
2018-10-06T01:44:24.743Z,0
2018-10-06T01:45:24.995Z,0
2018-10-06T01:46:24.981Z,0
2018-10-06T01:47:25.230Z,0
2018-10-06T01:48:24.422Z,0
2018-10-06T01:49:24.998Z,0
2018-10-06T01:50:24.927Z,0
2018-10-06T01:51:25.166Z,0
2018-10-06T01:52:24.899Z,0
2018-10-06T01:53:24.873Z,0
2018-10-06T01:54:24.336Z,0
2018-10-06T01:55:25.112Z,0
2018-10-06T01:56:24.837Z,0
2018-10-06T01:57:24.818Z,0
2018-10-06T01:58:24.799Z,0
2018-10-06T01:59:24.524Z,0
2018-10-06T02:00:24.770Z,0
2018-10-06T02:01:24.809Z,0
2018-10-06T02:02:24.478Z,0
2018-10-06T02:03:24.987Z,0
2018-10-06T02:04:24.710Z,0
2018-10-06T02:05:24.452Z,0
2018-10-06T02:06:24.945Z,0
2018-10-06T02:07:24.925Z,0
2018-10-06T02:08:24.387Z,0
2018-10-06T02:09:24.111Z,0
2018-10-06T02:10:24.618Z,0
2018-10-06T02:11:24.347Z,0
2018-10-06T02:12:24.332Z,0
2018-10-06T02:13:24.843Z,0
2018-10-06T02:14:24.556Z,0
2018-10-06T02:15:24.814Z,0
2018-10-06T02:16:24.000Z,0
2018-10-06T02:17:24.247Z,0
2018-10-06T02:18:24.239Z,0
2018-10-06T02:19:24.232Z,0
2018-10-06T02:20:24.213Z,0
2018-10-06T02:21:24.473Z,0
2018-10-06T02:22:24.179Z,0
2018-10-06T02:23:24.162Z,0
2018-10-06T02:24:24.408Z,0
2018-10-06T02:25:24.395Z,0
2018-10-06T02:26:24.115Z,0
2018-10-06T02:27:24.372Z,0
2018-10-06T02:28:24.613Z,0
2018-10-06T02:29:24.334Z,0
2018-10-06T02:30:24.728Z,0
2018-10-06T02:31:24.308Z,0
2018-10-06T02:32:23.770Z,0
2018-10-06T02:33:24.281Z,0
2018-10-06T02:34:24.291Z,0
2018-10-06T02:35:23.720Z,0
2018-10-06T02:36:24.227Z,0
2018-10-06T02:37:23.949Z,0
2018-10-06T02:38:24.226Z,0
2018-10-06T02:39:24.451Z,0
2018-10-06T02:40:24.166Z,0
2018-10-06T02:41:24.428Z,0
2018-10-06T02:42:23.878Z,0
2018-10-06T02:43:24.392Z,0
2018-10-06T02:44:23.841Z,0
2018-10-06T02:45:23.827Z,0
2018-10-06T02:46:23.809Z,0
2018-10-06T02:47:24.069Z,0
2018-10-06T02:48:24.043Z,0
2018-10-06T02:49:23.768Z,0
2018-10-06T02:50:23.758Z,0
2018-10-06T02:51:24.278Z,0
2018-10-06T02:52:23.994Z,0
2018-10-06T02:53:24.228Z,0
2018-10-06T02:54:23.951Z,0
2018-10-06T02:55:23.678Z,0
2018-10-06T02:56:24.188Z,0
2018-10-06T02:57:23.928Z,0
2018-10-06T02:58:23.891Z,0
2018-10-06T02:59:23.885Z,0
2018-10-06T03:00:24.133Z,0
2018-10-06T03:01:24.108Z,0
2018-10-06T03:02:23.842Z,0
2018-10-06T03:03:23.824Z,0
2018-10-06T03:04:23.549Z,0
2018-10-06T03:05:23.781Z,0
2018-10-06T03:06:23.511Z,0
2018-10-06T03:07:24.024Z,0
2018-10-06T03:08:23.743Z,0
2018-10-06T03:09:23.726Z,0
2018-10-06T03:10:23.381Z,0
2018-10-06T03:11:23.432Z,0
2018-10-06T03:12:23.418Z,0
2018-10-06T03:13:23.932Z,0
2018-10-06T03:14:23.673Z,0
2018-10-06T03:15:23.105Z,0
2018-10-06T03:16:23.613Z,0
2018-10-06T03:17:23.336Z,0
2018-10-06T03:18:23.857Z,0
2018-10-06T03:19:23.573Z,0
2018-10-06T03:20:23.555Z,0
2018-10-06T03:21:23.543Z,0
2018-10-06T03:22:23.265Z,0
2018-10-06T03:23:23.780Z,0
2018-10-06T03:24:23.503Z,0
2018-10-06T03:25:23.750Z,0
2018-10-06T03:26:23.244Z,0
2018-10-06T03:27:23.460Z,0
2018-10-06T03:28:23.737Z,0
2018-10-06T03:29:23.416Z,0
2018-10-06T03:30:23.405Z,0
2018-10-06T03:31:23.683Z,0
2018-10-06T03:32:23.387Z,0
2018-10-06T03:33:23.400Z,0
2018-10-06T03:34:23.602Z,0
2018-10-06T03:35:23.332Z,0
2018-10-06T03:36:23.045Z,0
2018-10-06T03:37:23.054Z,0
2018-10-06T03:38:23.300Z,0
2018-10-06T03:39:23.289Z,0
2018-10-06T03:40:23.276Z,0
2018-10-06T03:41:23.250Z,0
2018-10-06T03:42:23.266Z,0
2018-10-06T03:43:22.674Z,0
2018-10-06T03:44:23.187Z,0
2018-10-06T03:45:22.915Z,0
2018-10-06T03:46:22.891Z,0
2018-10-06T03:47:23.406Z,0
2018-10-06T03:48:23.132Z,0
2018-10-06T03:49:23.407Z,0
2018-10-06T03:50:23.411Z,0
2018-10-06T03:51:22.919Z,0
2018-10-06T03:52:22.808Z,0
2018-10-06T03:53:23.055Z,0
2018-10-06T03:54:23.299Z,0
2018-10-06T03:55:23.292Z,0
2018-10-06T03:56:22.999Z,0
2018-10-06T03:57:22.803Z,0
2018-10-06T03:58:22.715Z,0
2018-10-06T03:59:23.224Z,0
2018-10-06T04:00:22.967Z,0
2018-10-06T04:01:22.984Z,0
2018-10-06T04:02:22.931Z,0
2018-10-06T04:03:23.169Z,0
2018-10-06T04:04:23.137Z,0
2018-10-06T04:05:23.140Z,0
2018-10-06T04:06:22.336Z,0
2018-10-06T04:07:22.843Z,0
2018-10-06T04:08:23.094Z,0
2018-10-06T04:09:23.069Z,0
2018-10-06T04:10:22.780Z,0
2018-10-06T04:11:23.036Z,0
2018-10-06T04:12:23.026Z,0
2018-10-06T04:13:22.215Z,0
2018-10-06T04:14:22.729Z,0
2018-10-06T04:15:22.710Z,0
2018-10-06T04:16:22.695Z,0
2018-10-06T04:17:22.170Z,0
2018-10-06T04:18:22.672Z,0
2018-10-06T04:19:22.650Z,0
2018-10-06T04:20:22.651Z,0
2018-10-06T04:21:22.366Z,0
2018-10-06T04:22:22.342Z,0
2018-10-06T04:23:22.330Z,0
2018-10-06T04:24:22.835Z,0
2018-10-06T04:25:22.604Z,0
2018-10-06T04:26:22.814Z,0
2018-10-06T04:27:22.797Z,0
2018-10-06T04:28:23.104Z,0
2018-10-06T04:29:22.247Z,0
2018-10-06T04:30:22.226Z,0
2018-10-06T04:31:22.474Z,0
2018-10-06T04:32:22.449Z,0
2018-10-06T04:33:22.691Z,0
2018-10-06T04:34:22.417Z,0
2018-10-06T04:35:21.881Z,0
2018-10-06T04:36:22.382Z,0
2018-10-06T04:37:21.841Z,0
2018-10-06T04:38:22.694Z,0
2018-10-06T04:39:22.603Z,0
2018-10-06T04:40:22.319Z,0
2018-10-06T04:41:22.313Z,0
2018-10-06T04:42:22.025Z,0
2018-10-06T04:43:22.551Z,0
2018-10-06T04:44:21.999Z,0
2018-10-06T04:45:22.343Z,0
2018-10-06T04:46:22.491Z,0
2018-10-06T04:47:21.941Z,0
2018-10-06T04:48:21.929Z,0
2018-10-06T04:49:22.186Z,0
2018-10-06T04:50:22.431Z,0
2018-10-06T04:51:22.145Z,0
2018-10-06T04:52:22.135Z,0
2018-10-06T04:53:22.705Z,0
2018-10-06T04:54:22.107Z,0
2018-10-06T04:55:22.356Z,0
2018-10-06T04:56:22.338Z,0
2018-10-06T04:57:21.791Z,0
2018-10-06T04:58:22.044Z,0
2018-10-06T04:59:21.771Z,0
2018-10-06T05:00:21.478Z,0
2018-10-06T05:01:21.761Z,0
2018-10-06T05:02:21.736Z,0
2018-10-06T05:03:22.427Z,0
2018-10-06T05:04:21.954Z,0
2018-10-06T05:05:21.667Z,0
2018-10-06T05:06:21.656Z,0
2018-10-06T05:07:21.642Z,0
2018-10-06T05:08:21.906Z,0
2018-10-06T05:09:22.149Z,0
2018-10-06T05:10:22.055Z,0
2018-10-06T05:11:21.311Z,4
2018-10-06T05:12:21.822Z,4
2018-10-06T05:13:21.553Z,0
2018-10-06T05:14:21.522Z,4
2018-10-06T05:15:21.515Z,4
2018-10-06T05:16:21.760Z,4
2018-10-06T05:17:22.076Z,4
2018-10-06T05:18:21.758Z,8
2018-10-06T05:19:21.449Z,8
2018-10-06T05:20:21.437Z,8
2018-10-06T05:21:21.958Z,12
2018-10-06T05:22:21.400Z,12
2018-10-06T05:23:21.825Z,12
2018-10-06T05:24:21.643Z,16
2018-10-06T05:25:21.909Z,20
2018-10-06T05:26:21.337Z,20
2018-10-06T05:27:21.335Z,24
2018-10-06T05:28:21.600Z,32
2018-10-06T05:29:21.597Z,36
2018-10-06T05:30:21.016Z,40
2018-10-06T05:31:21.276Z,44
2018-10-06T05:32:21.249Z,52
2018-10-06T05:33:21.499Z,60
2018-10-06T05:34:21.670Z,72
2018-10-06T05:35:20.933Z,80
2018-10-06T05:36:21.187Z,88
2018-10-06T05:37:21.697Z,96
2018-10-06T05:38:21.684Z,108
2018-10-06T05:39:21.669Z,120
2018-10-06T05:40:21.393Z,132
2018-10-06T05:41:21.103Z,144
2018-10-06T05:42:21.617Z,164
2018-10-06T05:43:21.334Z,180
2018-10-06T05:44:21.322Z,192
2018-10-06T05:45:21.041Z,208
2018-10-06T05:46:21.769Z,228
2018-10-06T05:47:20.756Z,248
2018-10-06T05:48:21.266Z,264
2018-10-06T05:49:21.248Z,280
2018-10-06T05:50:20.974Z,300
2018-10-06T05:51:20.942Z,320
2018-10-06T05:52:21.214Z,332
2018-10-06T05:53:21.173Z,348
2018-10-06T05:54:21.160Z,364
2018-10-06T05:55:21.416Z,384
2018-10-06T05:56:20.860Z,404
2018-10-06T05:57:21.434Z,428
2018-10-06T05:58:20.837Z,444
2018-10-06T05:59:21.492Z,464
2018-10-06T06:00:21.066Z,484
2018-10-06T06:01:21.056Z,500
2018-10-06T06:02:20.777Z,520
2018-10-06T06:03:21.016Z,536
2018-10-06T06:04:20.473Z,552
2018-10-06T06:05:20.991Z,568
2018-10-06T06:06:20.705Z,588
2018-10-06T06:07:20.971Z,604
2018-10-06T06:08:20.960Z,624
2018-10-06T06:09:20.761Z,636
2018-10-06T06:10:21.183Z,660
2018-10-06T06:11:20.891Z,672
2018-10-06T06:12:20.879Z,688
2018-10-06T06:13:21.124Z,704
2018-10-06T06:14:20.585Z,716
2018-10-06T06:15:20.826Z,736
2018-10-06T06:16:20.848Z,752
2018-10-06T06:17:20.537Z,764
2018-10-06T06:18:21.048Z,784
2018-10-06T06:19:20.505Z,796
2018-10-06T06:20:20.224Z,804
2018-10-06T06:21:20.742Z,816
2018-10-06T06:22:20.455Z,828
2018-10-06T06:23:20.434Z,840
2018-10-06T06:24:20.698Z,852
2018-10-06T06:25:20.681Z,868
2018-10-06T06:26:20.658Z,880
2018-10-06T06:27:20.643Z,888
2018-10-06T06:28:20.362Z,900
2018-10-06T06:29:20.634Z,908
2018-10-06T06:30:20.594Z,916
2018-10-06T06:31:21.137Z,924
2018-10-06T06:32:20.769Z,936
2018-10-06T06:33:20.561Z,944
2018-10-06T06:34:20.536Z,964
2018-10-06T06:35:20.002Z,980
2018-10-06T06:36:20.525Z,992
2018-10-06T06:37:20.223Z,1004
2018-10-06T06:38:20.684Z,1020
2018-10-06T06:39:20.204Z,1040
2018-10-06T06:40:20.706Z,1052
2018-10-06T06:41:20.432Z,1064
2018-10-06T06:42:20.155Z,1068
2018-10-06T06:43:20.130Z,1080
2018-10-06T06:44:20.817Z,1088
2018-10-06T06:45:20.448Z,1100
2018-10-06T06:46:20.351Z,1116
2018-10-06T06:47:20.078Z,1136
2018-10-06T06:48:20.053Z,1164
2018-10-06T06:49:19.772Z,1180
2018-10-06T06:50:20.286Z,1192
2018-10-06T06:51:20.270Z,1200
2018-10-06T06:52:19.993Z,1216
2018-10-06T06:53:19.983Z,1232
2018-10-06T06:54:19.964Z,1248
2018-10-06T06:55:20.218Z,1268
2018-10-06T06:56:20.204Z,1280
2018-10-06T06:57:20.183Z,1296
2018-10-06T06:58:20.183Z,1316
2018-10-06T06:59:20.157Z,1336
2018-10-06T07:00:20.158Z,1348
2018-10-06T07:01:20.391Z,1364
2018-10-06T07:02:20.113Z,1376
2018-10-06T07:03:19.828Z,1388
2018-10-06T07:04:20.097Z,1404
2018-10-06T07:05:20.076Z,1416
2018-10-06T07:06:19.810Z,1424
2018-10-06T07:07:19.764Z,1428
2018-10-06T07:08:20.020Z,1440
2018-10-06T07:09:19.739Z,1440
2018-10-06T07:10:20.456Z,1452
2018-10-06T07:11:19.717Z,1456
2018-10-06T07:12:19.694Z,1464
2018-10-06T07:13:19.954Z,1464
2018-10-06T07:14:19.936Z,1468
2018-10-06T07:15:19.922Z,1476
2018-10-06T07:16:19.912Z,1480
2018-10-06T07:17:20.161Z,1488
2018-10-06T07:18:19.901Z,1488
2018-10-06T07:19:19.591Z,1492
2018-10-06T07:20:19.636Z,1496
2018-10-06T07:21:19.830Z,1492
2018-10-06T07:22:19.547Z,1492
2018-10-06T07:23:20.079Z,1488
2018-10-06T07:24:19.811Z,1488
2018-10-06T07:25:19.904Z,1492
2018-10-06T07:26:19.493Z,1488
2018-10-06T07:27:19.474Z,1488
2018-10-06T07:28:19.993Z,1488
2018-10-06T07:29:19.718Z,1492
2018-10-06T07:30:19.959Z,1492
2018-10-06T07:31:19.426Z,1496
2018-10-06T07:32:19.667Z,1496
2018-10-06T07:33:19.675Z,1500
2018-10-06T07:34:19.908Z,1496
2018-10-06T07:35:19.642Z,1504
2018-10-06T07:36:19.882Z,1508
2018-10-06T07:37:19.594Z,1512
2018-10-06T07:38:19.316Z,1512
2018-10-06T07:39:19.833Z,1520
2018-10-06T07:40:19.552Z,1528
2018-10-06T07:41:19.281Z,1532
2018-10-06T07:42:19.526Z,1540
2018-10-06T07:43:19.520Z,1540
2018-10-06T07:44:19.505Z,1548
2018-10-06T07:45:19.219Z,1560
2018-10-06T07:46:19.211Z,1572
2018-10-06T07:47:19.723Z,1580
2018-10-06T07:48:18.915Z,1600
2018-10-06T07:49:19.164Z,1624
2018-10-06T07:50:19.418Z,1644
2018-10-06T07:51:19.140Z,1660
2018-10-06T07:52:19.654Z,1680
2018-10-06T07:53:19.967Z,1688
2018-10-06T07:54:19.095Z,1688
2018-10-06T07:55:19.359Z,1676
2018-10-06T07:56:19.594Z,1660
2018-10-06T07:57:19.321Z,1664
2018-10-06T07:58:19.106Z,1668
2018-10-06T07:59:19.323Z,1676
2018-10-06T08:00:19.547Z,1700
2018-10-06T08:01:19.267Z,1864
2018-10-06T08:02:19.006Z,3416
2018-10-06T08:03:18.973Z,2712
2018-10-06T08:04:18.968Z,1832
2018-10-06T08:05:18.948Z,1844
2018-10-06T08:06:19.327Z,1776
2018-10-06T08:07:18.670Z,1764
2018-10-06T08:08:19.177Z,1748
2018-10-06T08:09:19.162Z,1736
2018-10-06T08:10:19.149Z,1740
2018-10-06T08:11:19.400Z,1840
2018-10-06T08:12:18.592Z,1876
2018-10-06T08:13:19.373Z,1752
2018-10-06T08:14:19.118Z,2248
2018-10-06T08:15:19.364Z,1812
2018-10-06T08:16:19.070Z,1792
2018-10-06T08:17:18.533Z,1756
2018-10-06T08:18:18.784Z,1760
2018-10-06T08:19:19.305Z,1768
2018-10-06T08:20:19.033Z,1772
2018-10-06T08:21:19.017Z,1772
2018-10-06T08:22:19.001Z,1780
2018-10-06T08:23:18.517Z,1776
2018-10-06T08:24:18.713Z,1788
2018-10-06T08:25:18.687Z,1792
2018-10-06T08:26:18.684Z,1800
2018-10-06T08:27:18.664Z,1808
2018-10-06T08:28:18.926Z,1812
2018-10-06T08:29:19.181Z,1816
2018-10-06T08:30:18.892Z,1824
2018-10-06T08:31:19.146Z,1828
2018-10-06T08:32:18.878Z,1832
2018-10-06T08:33:18.875Z,1836
2018-10-06T08:34:18.596Z,1840
2018-10-06T08:35:18.841Z,1840
2018-10-06T08:36:18.297Z,1852
2018-10-06T08:37:18.547Z,1844
2018-10-06T08:38:18.806Z,1864
2018-10-06T08:39:18.528Z,1868
2018-10-06T08:40:18.509Z,1924
2018-10-06T08:41:18.496Z,1944
2018-10-06T08:42:18.219Z,1876
2018-10-06T08:43:18.736Z,1880
2018-10-06T08:44:18.459Z,1892
2018-10-06T08:45:18.714Z,1896
2018-10-06T08:46:18.700Z,1904
2018-10-06T08:47:18.695Z,1916
2018-10-06T08:48:18.682Z,1940
2018-10-06T08:49:18.400Z,1968
2018-10-06T08:50:18.123Z,1976
2018-10-06T08:51:18.646Z,2064
2018-10-06T08:52:18.906Z,1952
2018-10-06T08:53:18.658Z,1960
2018-10-06T08:54:18.606Z,1980
2018-10-06T08:55:18.598Z,1980
2018-10-06T08:56:19.720Z,1976
2018-10-06T08:57:18.309Z,1980
2018-10-06T08:58:18.831Z,1984
2018-10-06T08:59:18.547Z,1992
2018-10-06T09:00:18.542Z,2000
2018-10-06T09:01:18.525Z,2064
2018-10-06T09:02:18.261Z,2300
2018-10-06T09:03:18.507Z,2160
2018-10-06T09:04:18.448Z,2016
2018-10-06T09:05:18.744Z,2020
2018-10-06T09:06:18.480Z,2024
2018-10-06T09:07:18.194Z,2072
2018-10-06T09:08:18.187Z,2032
2018-10-06T09:09:18.440Z,2048
2018-10-06T09:10:18.155Z,2052
2018-10-06T09:11:18.153Z,2060
2018-10-06T09:12:17.868Z,2072
2018-10-06T09:13:17.856Z,2072
2018-10-06T09:14:18.104Z,2080
2018-10-06T09:15:18.357Z,2084
2018-10-06T09:16:18.346Z,2092
2018-10-06T09:17:18.604Z,2100
2018-10-06T09:18:18.322Z,2108
2018-10-06T09:19:18.313Z,2276
2018-10-06T09:20:18.036Z,2144
2018-10-06T09:21:18.292Z,2144
2018-10-06T09:22:17.764Z,2128
2018-10-06T09:23:18.271Z,2136
2018-10-06T09:24:17.731Z,2140
2018-10-06T09:25:17.985Z,2152
2018-10-06T09:26:17.711Z,2168
2018-10-06T09:27:18.231Z,2180
2018-10-06T09:28:18.335Z,2192
2018-10-06T09:29:18.471Z,2120
2018-10-06T09:30:17.930Z,2196
2018-10-06T09:31:18.184Z,2212
2018-10-06T09:32:17.908Z,2216
2018-10-06T09:33:17.634Z,2220
2018-10-06T09:34:17.887Z,2232
2018-10-06T09:35:18.138Z,2244
2018-10-06T09:36:17.863Z,2252
2018-10-06T09:37:18.378Z,2256
2018-10-06T09:38:17.581Z,2268
2018-10-06T09:39:18.098Z,2272
2018-10-06T09:40:18.350Z,2284
2018-10-06T09:41:18.133Z,2292
2018-10-06T09:42:18.291Z,2300
2018-10-06T09:43:17.790Z,2300
2018-10-06T09:44:18.304Z,2308
2018-10-06T09:45:18.049Z,2320
2018-10-06T09:46:17.491Z,2324
2018-10-06T09:47:17.745Z,2340
2018-10-06T09:48:17.938Z,2348
2018-10-06T09:49:17.989Z,2364
2018-10-06T09:50:17.454Z,2372
2018-10-06T09:51:17.969Z,2384
2018-10-06T09:52:18.229Z,2396
2018-10-06T09:53:17.943Z,2408
2018-10-06T09:54:17.674Z,2432
2018-10-06T09:55:17.655Z,2476
2018-10-06T09:56:17.662Z,2460
2018-10-06T09:57:17.905Z,2492
2018-10-06T09:58:18.155Z,2512
2018-10-06T09:59:17.370Z,2528
2018-10-06T10:00:17.871Z,2552
2018-10-06T10:01:17.860Z,2568
2018-10-06T10:02:17.854Z,2576
2018-10-06T10:03:17.315Z,2548
2018-10-06T10:04:17.828Z,2548
2018-10-06T10:05:17.899Z,2700
2018-10-06T10:06:18.074Z,2748
2018-10-06T10:07:17.901Z,2788
2018-10-06T10:08:18.195Z,2800
2018-10-06T10:09:17.518Z,2840
2018-10-06T10:10:17.772Z,2876
2018-10-06T10:11:17.769Z,2964
2018-10-06T10:12:17.494Z,2992
2018-10-06T10:13:17.741Z,3040
2018-10-06T10:14:17.471Z,3048
2018-10-06T10:15:17.542Z,3040
2018-10-06T10:16:17.458Z,3024
2018-10-06T10:17:17.854Z,2972
2018-10-06T10:18:17.913Z,2944
2018-10-06T10:19:17.953Z,2900
2018-10-06T10:20:17.679Z,2872
2018-10-06T10:21:17.941Z,2868
2018-10-06T10:22:18.732Z,2852
2018-10-06T10:23:18.082Z,2840
2018-10-06T10:24:17.371Z,2856
2018-10-06T10:25:17.623Z,2888
2018-10-06T10:26:17.876Z,3288
2018-10-06T10:27:17.604Z,3340
2018-10-06T10:28:18.008Z,2984
2018-10-06T10:29:17.326Z,3044
2018-10-06T10:30:17.312Z,3116
2018-10-06T10:31:17.315Z,3284
2018-10-06T10:32:17.557Z,3592
2018-10-06T10:33:17.867Z,4892
2018-10-06T10:34:17.559Z,4484
2018-10-06T10:35:17.541Z,4096
2018-10-06T10:36:17.262Z,4756
2018-10-06T10:37:17.332Z,5428
2018-10-06T10:38:17.510Z,4084
2018-10-06T10:39:17.469Z,3972
2018-10-06T10:40:17.500Z,3928
2018-10-06T10:41:17.471Z,3972
2018-10-06T10:42:17.206Z,9364
2018-10-06T10:43:17.726Z,6832
2018-10-06T10:44:17.524Z,7192
2018-10-06T10:45:17.193Z,4324
2018-10-06T10:46:17.165Z,4008
2018-10-06T10:47:17.159Z,4852
2018-10-06T10:48:17.928Z,5520
2018-10-06T10:49:17.405Z,4572
2018-10-06T10:50:17.399Z,4320
2018-10-06T10:51:17.389Z,4252
2018-10-06T10:52:17.385Z,4676
2018-10-06T10:53:17.648Z,5744
2018-10-06T10:54:17.366Z,5244
2018-10-06T10:55:17.361Z,5616
2018-10-06T10:56:17.083Z,6024
2018-10-06T10:57:17.340Z,5452
2018-10-06T10:58:17.069Z,5520
2018-10-06T10:59:17.326Z,5008
2018-10-06T11:00:18.377Z,4992
2018-10-06T11:01:17.185Z,5328
2018-10-06T11:02:17.040Z,6456
2018-10-06T11:03:17.561Z,5688
2018-10-06T11:04:17.541Z,5056
2018-10-06T11:05:16.753Z,5172
2018-10-06T11:06:17.541Z,5312
2018-10-06T11:07:17.256Z,5676
2018-10-06T11:08:16.992Z,5616
2018-10-06T11:09:16.989Z,5452
2018-10-06T11:10:17.238Z,5768
2018-10-06T11:11:17.539Z,5584
2018-10-06T11:12:16.974Z,5548
2018-10-06T11:13:17.213Z,5604
2018-10-06T11:14:17.520Z,5744
2018-10-06T11:15:17.473Z,5824
2018-10-06T11:16:16.931Z,6036
2018-10-06T11:17:17.731Z,6136
2018-10-06T11:18:17.180Z,6676
2018-10-06T11:19:16.901Z,6960
2018-10-06T11:20:17.427Z,6508
2018-10-06T11:21:17.156Z,6476
2018-10-06T11:22:17.151Z,7972
2018-10-06T11:23:17.140Z,6464
2018-10-06T11:24:16.617Z,6272
2018-10-06T11:25:17.127Z,6328
2018-10-06T11:26:17.121Z,6540
2018-10-06T11:27:16.846Z,6332
2018-10-06T11:28:17.374Z,6504
2018-10-06T11:29:17.097Z,6800
2018-10-06T11:30:17.351Z,6716
2018-10-06T11:31:17.346Z,6344
2018-10-06T11:32:17.076Z,7632
2018-10-06T11:33:17.085Z,8132
2018-10-06T11:34:16.799Z,8852
2018-10-06T11:35:17.050Z,7472
2018-10-06T11:36:17.044Z,7760
2018-10-06T11:37:17.273Z,7700
2018-10-06T11:38:16.998Z,9988
2018-10-06T11:39:17.021Z,8912
2018-10-06T11:40:16.748Z,9168
2018-10-06T11:41:17.008Z,10380
2018-10-06T11:42:17.266Z,12668
2018-10-06T11:43:16.996Z,10740
2018-10-06T11:44:17.260Z,12644
2018-10-06T11:45:16.983Z,12860
2018-10-06T11:46:16.972Z,12976
2018-10-06T11:47:16.966Z,13392
2018-10-06T11:48:16.696Z,13600
2018-10-06T11:49:16.976Z,17312
2018-10-06T11:50:16.856Z,17696
2018-10-06T11:51:16.694Z,17376
2018-10-06T11:52:16.965Z,19616
2018-10-06T11:53:16.683Z,27360
2018-10-06T11:54:17.198Z,15200
2018-10-06T11:55:17.183Z,14976
2018-10-06T11:56:17.205Z,15200
2018-10-06T11:57:17.191Z,17984
2018-10-06T11:58:16.901Z,25792
2018-10-06T11:59:17.175Z,24256
2018-10-06T12:00:17.818Z,22624
2018-10-06T12:01:16.618Z,28160
2018-10-06T12:02:16.879Z,29536
2018-10-06T12:03:16.611Z,40640
2018-10-06T12:04:16.880Z,32608
2018-10-06T12:05:16.605Z,47424
2018-10-06T12:06:17.132Z,44384
2018-10-06T12:07:16.867Z,46784
2018-10-06T12:08:16.601Z,45088
2018-10-06T12:09:16.588Z,45888
2018-10-06T12:10:16.848Z,46304
2018-10-06T12:11:16.845Z,43808
2018-10-06T12:12:16.312Z,45632
2018-10-06T12:13:16.577Z,46976
2018-10-06T12:14:16.845Z,49856
2018-10-06T12:15:16.584Z,52576
2018-10-06T12:16:16.833Z,50720
2018-10-06T12:17:16.622Z,44704
2018-10-06T12:18:17.101Z,41312
2018-10-06T12:19:16.303Z,38208
2018-10-06T12:20:16.570Z,41184
2018-10-06T12:21:17.102Z,43168
2018-10-06T12:22:17.104Z,47072
2018-10-06T12:23:17.099Z,47968
2018-10-06T12:24:16.575Z,46464
2018-10-06T12:25:17.102Z,47520
2018-10-06T12:26:16.781Z,47072
2018-10-06T12:27:17.204Z,47904
2018-10-06T12:28:16.849Z,49152
2018-10-06T12:29:16.585Z,52160
2018-10-06T12:30:16.314Z,53280
2018-10-06T12:31:16.590Z,50048
2018-10-06T12:32:16.856Z,46720
2018-10-06T12:33:16.578Z,41920
2018-10-06T12:34:17.120Z,39424
2018-10-06T12:35:17.758Z,36864
2018-10-06T12:36:16.842Z,37184
2018-10-06T12:37:16.841Z,38912
2018-10-06T12:38:17.133Z,40768
2018-10-06T12:39:16.850Z,44576
2018-10-06T12:40:16.854Z,44160
2018-10-06T12:41:16.845Z,42368
2018-10-06T12:42:16.829Z,38432
2018-10-06T12:43:17.116Z,39744
2018-10-06T12:44:17.135Z,40896
2018-10-06T12:45:17.130Z,44128
2018-10-06T12:46:16.327Z,45280
2018-10-06T12:47:16.868Z,44160
2018-10-06T12:48:16.878Z,41952
2018-10-06T12:49:16.869Z,40352
2018-10-06T12:50:16.607Z,38976
2018-10-06T12:51:16.922Z,41120
2018-10-06T12:52:17.143Z,40640
2018-10-06T12:53:16.616Z,43488
2018-10-06T12:54:16.882Z,42848
2018-10-06T12:55:17.148Z,48608
2018-10-06T12:56:17.159Z,47968
2018-10-06T12:57:17.155Z,44544
2018-10-06T12:58:16.626Z,42880
2018-10-06T12:59:16.892Z,40160
2018-10-06T13:00:17.125Z,41920
2018-10-06T13:01:16.651Z,43872
2018-10-06T13:02:16.910Z,45856
2018-10-06T13:03:16.381Z,46656
2018-10-06T13:04:16.904Z,45920
2018-10-06T13:05:17.180Z,42688
2018-10-06T13:06:16.882Z,38272
2018-10-06T13:07:16.983Z,35296
2018-10-06T13:08:16.932Z,36192
2018-10-06T13:09:16.659Z,37056
2018-10-06T13:10:16.976Z,38848
2018-10-06T13:11:16.672Z,40288
2018-10-06T13:12:16.668Z,40480
2018-10-06T13:13:16.947Z,39424
2018-10-06T13:14:16.673Z,40096
2018-10-06T13:15:16.410Z,38880
2018-10-06T13:16:16.436Z,41536
2018-10-06T13:17:16.680Z,42880
2018-10-06T13:18:16.685Z,44544
2018-10-06T13:19:16.960Z,43776
2018-10-06T13:20:17.215Z,41440
2018-10-06T13:21:17.226Z,39488
2018-10-06T13:22:16.957Z,38112
2018-10-06T13:23:17.271Z,37760
2018-10-06T13:24:16.441Z,39168
2018-10-06T13:25:16.960Z,42080
2018-10-06T13:26:16.750Z,42592
2018-10-06T13:27:16.706Z,42912
2018-10-06T13:28:17.236Z,40032
2018-10-06T13:29:16.719Z,36288
2018-10-06T13:30:17.243Z,35712
2018-10-06T13:31:17.244Z,34624
2018-10-06T13:32:16.718Z,32288
2018-10-06T13:33:16.715Z,33856
2018-10-06T13:34:16.989Z,34432
2018-10-06T13:35:16.988Z,32800
2018-10-06T13:36:17.252Z,33824
2018-10-06T13:37:17.246Z,34688
2018-10-06T13:38:16.995Z,33440
2018-10-06T13:39:16.988Z,32672
2018-10-06T13:40:17.254Z,30784
2018-10-06T13:41:16.991Z,28576
2018-10-06T13:42:17.261Z,27680
2018-10-06T13:43:17.270Z,30240
2018-10-06T13:44:16.734Z,31264
2018-10-06T13:45:16.737Z,31008
2018-10-06T13:46:17.284Z,32000
2018-10-06T13:47:16.734Z,33184
2018-10-06T13:48:16.998Z,29056
2018-10-06T13:49:17.008Z,27328